createdAt,value
2018-09-21T00:01:50.014Z,8.47
2018-09-21T00:04:18.414Z,9.27
2018-09-21T00:06:46.789Z,7.57
2018-09-21T00:09:15.206Z,11.00
2018-09-21T00:11:43.578Z,9.93
2018-09-21T00:14:11.961Z,8.63
2018-09-21T00:16:40.360Z,8.43
2018-09-21T00:19:08.745Z,10.50
2018-09-21T00:21:37.147Z,8.10
2018-09-21T00:24:05.530Z,8.20
2018-09-21T00:26:33.950Z,9.27
2018-09-21T00:29:02.342Z,9.73
2018-09-21T00:31:30.744Z,7.70
2018-09-21T00:33:59.130Z,8.17
2018-09-21T00:36:27.538Z,10.17
2018-09-21T00:38:55.906Z,9.10
2018-09-21T00:41:24.318Z,10.13
2018-09-21T00:43:52.698Z,8.00
2018-09-21T00:46:21.091Z,8.87
2018-09-21T00:48:49.474Z,10.03
2018-09-21T00:51:17.878Z,8.67
2018-09-21T00:53:46.250Z,6.73
2018-09-21T00:56:14.646Z,8.30
2018-09-21T00:58:43.030Z,9.73
2018-09-21T01:01:11.426Z,6.77
2018-09-21T01:03:39.801Z,9.27
2018-09-21T01:06:08.206Z,8.77
2018-09-21T01:08:36.581Z,9.80
2018-09-21T01:11:05.078Z,9.93
2018-09-21T01:13:33.535Z,8.60
2018-09-21T01:16:01.934Z,8.07
2018-09-21T01:18:30.306Z,8.27
2018-09-21T01:20:58.710Z,8.20
2018-09-21T01:23:27.083Z,8.07
2018-09-21T01:25:55.671Z,7.50
2018-09-21T01:28:24.046Z,8.17
2018-09-21T01:30:52.442Z,8.20
2018-09-21T01:33:20.818Z,9.00
2018-09-21T01:35:49.300Z,7.77
2018-09-21T01:38:17.679Z,7.40
2018-09-21T01:40:46.074Z,7.00
2018-09-21T01:43:14.450Z,8.17
2018-09-21T01:45:42.856Z,8.20
2018-09-21T01:48:11.226Z,7.57
2018-09-21T01:50:39.627Z,6.90
2018-09-21T01:53:08.001Z,6.60
2018-09-21T01:55:36.390Z,7.07
2018-09-21T01:58:04.763Z,6.23
2018-09-21T02:00:33.195Z,6.30
2018-09-21T02:03:01.579Z,7.40
2018-09-21T02:05:29.966Z,6.53
2018-09-21T02:07:58.367Z,6.70
2018-09-21T02:10:26.743Z,6.67
2018-09-21T02:12:55.151Z,7.40
2018-09-21T02:15:23.532Z,6.10
2018-09-21T02:17:51.998Z,7.40
2018-09-21T02:20:20.365Z,7.30
2018-09-21T02:22:48.803Z,6.80
2018-09-21T02:25:17.198Z,6.60
2018-09-21T02:27:45.594Z,6.93
2018-09-21T02:30:14.118Z,7.07
2018-09-21T02:32:42.523Z,6.47
2018-09-21T02:35:11.078Z,6.70
2018-09-21T02:37:39.475Z,6.60
2018-09-21T02:40:08.250Z,7.13
2018-09-21T02:42:36.655Z,8.23
2018-09-21T02:45:05.251Z,7.67
2018-09-21T02:47:33.655Z,7.03
2018-09-21T02:50:02.031Z,7.00
2018-09-21T02:52:30.442Z,6.50
2018-09-21T02:54:58.821Z,6.60
2018-09-21T02:57:27.224Z,7.60
2018-09-21T02:59:55.615Z,6.17
2018-09-21T03:02:24.009Z,7.27
2018-09-21T03:04:55.014Z,7.00
2018-09-21T03:07:24.333Z,8.70
2018-09-21T03:09:52.730Z,8.77
2018-09-21T03:12:21.136Z,7.10
2018-09-21T03:14:49.507Z,7.23
2018-09-21T03:17:17.906Z,7.47
2018-09-21T03:19:46.295Z,7.87
2018-09-21T03:22:14.693Z,8.20
2018-09-21T03:24:43.094Z,8.30
2018-09-21T03:27:11.482Z,7.40
2018-09-21T03:29:40.036Z,7.17
2018-09-21T03:32:08.430Z,7.70
2018-09-21T03:34:36.801Z,7.50
2018-09-21T03:37:05.202Z,7.47
2018-09-21T03:39:33.586Z,7.80
2018-09-21T03:42:01.999Z,7.87
2018-09-21T03:44:30.373Z,8.90
2018-09-21T03:46:58.779Z,7.83
2018-09-21T03:49:27.771Z,7.90
2018-09-21T03:51:56.165Z,7.20
2018-09-21T03:54:24.556Z,7.30
2018-09-21T03:56:53.213Z,7.43
2018-09-21T03:59:21.588Z,8.20
2018-09-21T04:01:49.986Z,7.40
2018-09-21T04:04:18.379Z,7.83
2018-09-21T04:06:47.055Z,7.77
2018-09-21T04:09:15.444Z,8.33
2018-09-21T04:11:43.825Z,8.17
2018-09-21T04:14:12.219Z,7.83
2018-09-21T04:16:40.598Z,7.97
2018-09-21T04:19:08.995Z,7.43
2018-09-21T04:21:37.381Z,8.90
2018-09-21T04:24:05.789Z,8.17
2018-09-21T04:26:34.183Z,8.23
2018-09-21T04:29:02.586Z,8.23
2018-09-21T04:31:31.070Z,8.00
2018-09-21T04:33:59.544Z,8.00
2018-09-21T04:36:27.902Z,8.00
2018-09-21T04:38:56.305Z,10.13
2018-09-21T04:41:24.678Z,8.63
2018-09-21T04:43:53.077Z,9.40
2018-09-21T04:46:21.475Z,8.73
2018-09-21T04:48:49.879Z,9.10
2018-09-21T04:51:18.251Z,8.60
2018-09-21T04:53:46.655Z,8.63
2018-09-21T04:56:15.027Z,8.93
2018-09-21T04:58:43.421Z,8.70
2018-09-21T05:01:11.803Z,8.63
2018-09-21T05:03:40.212Z,8.10
2018-09-21T05:06:08.626Z,8.80
2018-09-21T05:08:37.033Z,8.37
2018-09-21T05:11:05.414Z,8.00
2018-09-21T05:13:33.814Z,7.83
2018-09-21T05:16:02.210Z,8.30
2018-09-21T05:18:30.616Z,8.47
2018-09-21T05:20:58.991Z,8.50
2018-09-21T05:23:27.386Z,9.03
2018-09-21T05:25:55.787Z,8.10
2018-09-21T05:28:24.188Z,8.57
2018-09-21T05:30:52.563Z,6.97
2018-09-21T05:33:20.954Z,8.00
2018-09-21T05:35:49.327Z,8.27
2018-09-21T05:38:17.723Z,8.43
2018-09-21T05:40:46.098Z,7.90
2018-09-21T05:43:14.549Z,6.97
2018-09-21T05:45:43.044Z,7.97
2018-09-21T05:48:11.660Z,8.80
2018-09-21T05:50:40.031Z,8.63
2018-09-21T05:53:09.139Z,8.37
2018-09-21T05:55:37.679Z,7.23
2018-09-21T05:58:06.120Z,8.03
2018-09-21T06:00:34.495Z,7.60
2018-09-21T06:03:02.891Z,8.13
2018-09-21T06:05:31.286Z,8.87
2018-09-21T06:07:59.751Z,8.60
2018-09-21T06:10:28.161Z,8.17
2018-09-21T06:12:56.638Z,9.47
2018-09-21T06:15:25.042Z,8.90
2018-09-21T06:17:53.454Z,8.30
2018-09-21T06:20:21.850Z,8.10
2018-09-21T06:22:50.247Z,8.33
2018-09-21T06:25:18.674Z,8.77
2018-09-21T06:27:47.050Z,7.70
2018-09-21T06:30:15.452Z,8.20
2018-09-21T06:32:43.878Z,8.97
2018-09-21T06:35:12.274Z,8.40
2018-09-21T06:37:40.760Z,8.20
2018-09-21T06:40:09.220Z,8.47
2018-09-21T06:42:37.591Z,8.40
2018-09-21T06:45:06.142Z,7.90
2018-09-21T06:47:34.529Z,8.10
2018-09-21T06:50:02.973Z,8.33
2018-09-21T06:52:31.356Z,7.90
2018-09-21T06:54:59.742Z,7.80
2018-09-21T06:57:28.114Z,7.67
2018-09-21T06:59:56.664Z,8.80
2018-09-21T07:02:25.034Z,8.77
2018-09-21T07:04:53.525Z,7.93
2018-09-21T07:07:21.899Z,8.20
2018-09-21T07:09:50.314Z,8.67
2018-09-21T07:12:18.694Z,8.77
2018-09-21T07:14:47.085Z,8.40
2018-09-21T07:17:15.462Z,9.57
2018-09-21T07:19:43.866Z,9.13
2018-09-21T07:22:12.252Z,9.00
2018-09-21T07:24:40.826Z,8.93
2018-09-21T07:27:09.197Z,7.87
2018-09-21T07:29:37.598Z,8.83
2018-09-21T07:32:05.972Z,9.50
2018-09-21T07:34:34.377Z,8.83
2018-09-21T07:37:02.749Z,8.97
2018-09-21T07:39:31.289Z,8.80
2018-09-21T07:41:59.663Z,9.60
2018-09-21T07:44:28.066Z,9.17
2018-09-21T07:46:56.827Z,10.00
2018-09-21T07:49:25.277Z,9.23
2018-09-21T07:51:53.774Z,9.50
2018-09-21T07:54:22.214Z,9.37
2018-09-21T07:56:50.606Z,9.90
2018-09-21T07:59:18.999Z,9.70
2018-09-21T08:01:47.378Z,10.43
2018-09-21T08:04:15.747Z,9.47
2018-09-21T08:06:44.146Z,9.50
2018-09-21T08:09:12.523Z,9.30
2018-09-21T08:11:40.918Z,8.70
2018-09-21T08:14:09.303Z,8.80
2018-09-21T08:16:38.523Z,8.67
2018-09-21T08:19:07.399Z,10.07
2018-09-21T08:21:35.790Z,9.10
2018-09-21T08:24:04.554Z,8.90
2018-09-21T08:26:33.290Z,9.07
2018-09-21T08:29:01.658Z,9.43
2018-09-21T08:31:30.091Z,8.23
2018-09-21T08:33:58.461Z,8.87
2018-09-21T08:36:26.854Z,9.00
2018-09-21T08:38:55.222Z,8.00
2018-09-21T08:41:23.630Z,9.17
2018-09-21T08:43:52.002Z,7.93
2018-09-21T08:46:20.403Z,9.90
2018-09-21T08:48:50.511Z,8.50
2018-09-21T08:51:18.911Z,8.10
2018-09-21T08:53:47.299Z,8.37
2018-09-21T08:56:15.703Z,8.67
2018-09-21T08:58:44.082Z,8.50
2018-09-21T09:01:12.478Z,8.07
2018-09-21T09:03:40.853Z,8.43
2018-09-21T09:06:09.243Z,8.80
2018-09-21T09:08:37.627Z,8.03
2018-09-21T09:11:06.145Z,7.43
2018-09-21T09:13:34.528Z,8.00
2018-09-21T09:16:02.935Z,8.23
2018-09-21T09:18:31.315Z,8.13
2018-09-21T09:20:59.719Z,7.20
2018-09-21T09:23:28.196Z,7.10
2018-09-21T09:25:56.623Z,7.70
2018-09-21T09:28:25.001Z,7.50
2018-09-21T09:30:53.394Z,6.63
2018-09-21T09:33:21.771Z,7.53
2018-09-21T09:35:50.166Z,7.37
2018-09-21T09:38:18.530Z,7.83
2018-09-21T09:40:46.931Z,7.80
2018-09-21T09:43:15.323Z,7.97
2018-09-21T09:45:43.731Z,7.43
2018-09-21T09:48:12.110Z,7.13
2018-09-21T09:50:40.522Z,6.13
2018-09-21T09:53:08.902Z,7.47
2018-09-21T09:55:37.311Z,7.30
2018-09-21T09:58:05.715Z,7.30
2018-09-21T10:00:36.203Z,5.87
2018-09-21T10:03:04.591Z,6.47
2018-09-21T10:05:32.961Z,6.77
2018-09-21T10:08:01.354Z,7.13
2018-09-21T10:10:29.806Z,7.20
2018-09-21T10:12:58.171Z,6.83
2018-09-21T10:15:26.552Z,6.80
2018-09-21T10:17:54.947Z,5.83
2018-09-21T10:20:23.344Z,6.50
2018-09-21T10:22:51.734Z,6.63
2018-09-21T10:25:20.122Z,6.90
2018-09-21T10:27:48.622Z,6.57
2018-09-21T10:30:16.923Z,6.40
2018-09-21T10:32:45.322Z,6.93
2018-09-21T10:35:13.785Z,6.23
2018-09-21T10:37:42.153Z,5.47
2018-09-21T10:40:10.573Z,7.27
2018-09-21T10:42:39.030Z,5.63
2018-09-21T10:45:07.544Z,6.87
2018-09-21T10:47:35.951Z,6.87
2018-09-21T10:50:04.337Z,6.80
2018-09-21T10:52:32.815Z,6.33
2018-09-21T10:55:01.183Z,5.97
2018-09-21T10:57:29.591Z,6.73
2018-09-21T10:59:57.971Z,5.73
2018-09-21T11:02:26.375Z,6.57
2018-09-21T11:04:54.934Z,6.00
2018-09-21T11:07:23.335Z,7.10
2018-09-21T11:09:51.718Z,6.57
2018-09-21T11:12:20.127Z,6.03
2018-09-21T11:14:48.503Z,5.80
2018-09-21T11:17:16.894Z,6.87
2018-09-21T11:19:45.277Z,7.47
2018-09-21T11:22:13.690Z,6.27
2018-09-21T11:24:42.091Z,6.20
2018-09-21T11:27:10.583Z,6.60
2018-09-21T11:29:38.966Z,5.80
2018-09-21T11:32:07.467Z,6.40
2018-09-21T11:34:35.850Z,6.63
2018-09-21T11:37:04.249Z,6.57
2018-09-21T11:39:32.636Z,6.53
2018-09-21T11:42:01.030Z,6.30
2018-09-21T11:44:29.504Z,6.80
2018-09-21T11:46:58.014Z,6.00
2018-09-21T11:49:26.311Z,5.50
2018-09-21T11:51:54.710Z,5.50
2018-09-21T11:54:23.086Z,5.70
2018-09-21T11:56:51.486Z,6.53
2018-09-21T11:59:19.881Z,6.10
2018-09-21T12:01:48.295Z,7.10
2018-09-21T12:04:16.684Z,6.43
2018-09-21T12:06:45.062Z,6.17
2018-09-21T12:09:13.471Z,5.73
2018-09-21T12:11:41.854Z,6.43
2018-09-21T12:14:10.259Z,7.37
2018-09-21T12:16:38.845Z,7.00
2018-09-21T12:19:07.276Z,7.40
2018-09-21T12:21:35.646Z,7.40
2018-09-21T12:24:04.059Z,5.83
2018-09-21T12:26:32.567Z,6.03
2018-09-21T12:29:00.966Z,5.83
2018-09-21T12:31:29.359Z,6.73
2018-09-21T12:33:57.758Z,6.53
2018-09-21T12:36:26.167Z,7.00
2018-09-21T12:38:54.707Z,6.03
2018-09-21T12:41:23.122Z,6.67
2018-09-21T12:43:51.528Z,6.03
2018-09-21T12:46:25.232Z,6.40
2018-09-21T12:48:55.956Z,5.70
2018-09-21T12:51:24.683Z,5.87
2018-09-21T12:53:53.274Z,5.70
2018-09-21T12:56:21.646Z,5.50
2018-09-21T12:58:50.171Z,6.93
2018-09-21T13:01:18.470Z,6.20
2018-09-21T13:03:47.003Z,5.67
2018-09-21T13:06:15.400Z,6.10
2018-09-21T13:08:43.806Z,6.37
2018-09-21T13:11:12.204Z,5.67
2018-09-21T13:13:40.622Z,5.10
2018-09-21T13:16:09.006Z,6.90
2018-09-21T13:18:37.483Z,5.33
2018-09-21T13:21:05.876Z,5.83
2018-09-21T13:23:34.279Z,5.67
2018-09-21T13:26:02.704Z,5.23
2018-09-21T13:28:31.095Z,5.10
2018-09-21T13:30:59.542Z,5.73
2018-09-21T13:33:27.951Z,5.80
2018-09-21T13:35:56.322Z,5.80
2018-09-21T13:38:24.927Z,5.10
2018-09-21T13:40:53.295Z,5.60
2018-09-21T13:43:21.672Z,4.80
2018-09-21T13:45:50.066Z,5.57
2018-09-21T13:48:18.442Z,5.77
2018-09-21T13:50:46.831Z,5.37
2018-09-21T13:53:15.204Z,5.43
2018-09-21T13:55:43.599Z,5.03
2018-09-21T13:58:11.966Z,5.47
2018-09-21T14:00:40.359Z,15.60
2018-09-21T14:03:08.751Z,13.43
2018-09-21T14:05:37.238Z,7.10
2018-09-21T14:08:05.690Z,3.90
2018-09-21T14:10:34.097Z,2.00
2018-09-21T14:13:02.492Z,2.13
2018-09-21T14:15:30.891Z,1.47
2018-09-21T14:17:59.262Z,1.73
2018-09-21T14:20:27.672Z,3.07
2018-09-21T14:22:56.042Z,2.33
2018-09-21T14:25:24.451Z,2.97
2018-09-21T14:27:52.850Z,2.60
2018-09-21T14:30:21.259Z,2.80
2018-09-21T14:32:49.628Z,2.80
2018-09-21T14:35:18.066Z,2.80
2018-09-21T14:37:46.443Z,2.10
2018-09-21T14:40:14.845Z,2.60
2018-09-21T14:42:43.228Z,2.10
2018-09-21T14:45:11.782Z,2.40
2018-09-21T14:47:40.154Z,2.03
2018-09-21T14:50:08.847Z,2.10
2018-09-21T14:52:37.398Z,2.03
2018-09-21T14:55:06.762Z,1.70
2018-09-21T14:57:35.138Z,1.80
2018-09-21T15:00:03.542Z,2.83
2018-09-21T15:02:31.923Z,2.13
2018-09-21T15:05:00.318Z,2.17
2018-09-21T15:07:28.692Z,1.80
2018-09-21T15:09:57.102Z,2.00
2018-09-21T15:12:25.490Z,2.03
2018-09-21T15:14:53.931Z,2.57
2018-09-21T15:17:22.295Z,1.90
2018-09-21T15:19:50.697Z,2.23
2018-09-21T15:22:19.103Z,2.60
2018-09-21T15:24:47.559Z,3.03
2018-09-21T15:27:16.255Z,2.57
2018-09-21T15:29:44.762Z,2.63
2018-09-21T15:32:13.731Z,2.33
2018-09-21T15:34:42.469Z,1.87
2018-09-21T15:37:11.007Z,3.37
2018-09-21T15:39:39.576Z,2.87
2018-09-21T15:42:08.185Z,2.20
2018-09-21T15:44:37.866Z,2.30
2018-09-21T15:47:06.454Z,2.97
2018-09-21T15:49:35.016Z,2.73
2018-09-21T15:52:03.881Z,3.30
2018-09-21T15:54:32.399Z,2.10
2018-09-21T15:57:00.847Z,2.60
2018-09-21T15:59:29.569Z,2.53
2018-09-21T16:01:57.973Z,2.40
2018-09-21T16:04:26.558Z,2.70
2018-09-21T16:06:54.979Z,2.10
2018-09-21T16:09:23.385Z,1.97
2018-09-21T16:11:51.778Z,2.70
2018-09-21T16:14:20.175Z,3.00
2018-09-21T16:16:48.596Z,2.37
2018-09-21T16:19:16.975Z,2.63
2018-09-21T16:21:45.371Z,3.90
2018-09-21T16:24:13.743Z,2.20
2018-09-21T16:26:43.622Z,2.33
2018-09-21T16:29:12.259Z,3.00
2018-09-21T16:31:41.023Z,2.80
2018-09-21T16:34:09.527Z,2.63
2018-09-21T16:36:37.946Z,2.40
2018-09-21T16:39:08.598Z,2.70
2018-09-21T16:41:37.057Z,2.17
2018-09-21T16:44:05.639Z,2.70
2018-09-21T16:46:34.062Z,2.83
2018-09-21T16:49:02.480Z,2.17
2018-09-21T16:51:30.918Z,3.03
2018-09-21T16:53:59.310Z,2.37
2018-09-21T16:56:27.711Z,3.43
2018-09-21T16:58:56.191Z,2.40
2018-09-21T17:01:24.519Z,2.80
2018-09-21T17:03:52.903Z,2.63
2018-09-21T17:06:21.390Z,2.57
2018-09-21T17:08:49.784Z,1.93
2018-09-21T17:11:19.125Z,2.90
2018-09-21T17:13:47.571Z,3.17
2018-09-21T17:16:15.977Z,2.67
2018-09-21T17:18:44.362Z,2.60
2018-09-21T17:21:12.925Z,2.90
2018-09-21T17:23:41.245Z,4.10
2018-09-21T17:26:09.688Z,3.03
2018-09-21T17:28:38.074Z,2.53
2018-09-21T17:31:06.655Z,3.37
2018-09-21T17:33:35.027Z,2.77
2018-09-21T17:36:03.434Z,2.80
2018-09-21T17:38:31.806Z,3.17
2018-09-21T17:41:00.208Z,3.60
2018-09-21T17:43:28.606Z,3.10
2018-09-21T17:45:57.002Z,2.90
2018-09-21T17:48:25.362Z,2.83
2018-09-21T17:50:53.836Z,2.67
2018-09-21T17:53:22.332Z,3.00
2018-09-21T17:55:50.991Z,2.27
2018-09-21T17:58:19.391Z,2.30
2018-09-21T18:00:47.803Z,2.60
2018-09-21T18:03:16.218Z,2.33
2018-09-21T18:05:44.594Z,2.30
2018-09-21T18:08:13.000Z,3.00
2018-09-21T18:10:41.384Z,2.60
2018-09-21T18:13:09.937Z,2.20
2018-09-21T18:15:38.308Z,2.60
2018-09-21T18:18:06.707Z,2.07
2018-09-21T18:20:35.083Z,2.33
2018-09-21T18:23:03.474Z,2.50
2018-09-21T18:25:31.930Z,2.40
2018-09-21T18:28:00.335Z,2.67
2018-09-21T18:30:28.897Z,2.30
2018-09-21T18:32:57.298Z,2.77
2018-09-21T18:35:25.674Z,2.47
2018-09-21T18:37:54.064Z,2.80
2018-09-21T18:40:22.710Z,2.87
2018-09-21T18:42:51.238Z,2.27
2018-09-21T18:45:19.615Z,3.20
2018-09-21T18:47:48.015Z,3.00
2018-09-21T18:50:16.457Z,2.37
2018-09-21T18:52:44.814Z,2.60
2018-09-21T18:55:13.203Z,2.57
2018-09-21T18:57:41.603Z,3.30
2018-09-21T19:00:09.982Z,2.93
2018-09-21T19:02:38.383Z,3.53
2018-09-21T19:05:06.799Z,2.80
2018-09-21T19:07:35.195Z,2.77
2018-09-21T19:10:03.570Z,3.30
2018-09-21T19:12:31.967Z,2.50
2018-09-21T19:15:00.646Z,2.30
2018-09-21T19:17:29.755Z,3.00
2018-09-21T19:19:58.126Z,2.70
2018-09-21T19:22:26.531Z,2.77
2018-09-21T19:24:55.015Z,2.60
2018-09-21T19:27:24.079Z,2.67
2018-09-21T19:29:52.457Z,5.10
2018-09-21T19:32:20.927Z,3.10
2018-09-21T19:34:49.317Z,3.00
2018-09-21T19:37:17.727Z,3.00
2018-09-21T19:39:46.200Z,2.93
2018-09-21T19:42:14.570Z,3.50
2018-09-21T19:44:42.975Z,3.23
2018-09-21T19:47:11.562Z,3.40
2018-09-21T19:49:40.008Z,4.13
2018-09-21T19:52:08.403Z,3.30
2018-09-21T19:54:36.978Z,4.07
2018-09-21T19:57:05.386Z,3.40
2018-09-21T19:59:34.730Z,4.27
2018-09-21T20:02:03.167Z,4.00
2018-09-21T20:04:31.584Z,3.90
2018-09-21T20:07:00.018Z,4.10
2018-09-21T20:09:28.417Z,3.67
2018-09-21T20:11:56.819Z,4.00
2018-09-21T20:14:25.218Z,3.07
2018-09-21T20:16:53.596Z,3.60
2018-09-21T20:19:22.002Z,4.33
2018-09-21T20:21:50.374Z,3.10
2018-09-21T20:24:18.793Z,3.93
2018-09-21T20:26:47.192Z,3.40
2018-09-21T20:29:15.594Z,3.20
2018-09-21T20:31:49.927Z,3.77
2018-09-21T20:34:18.523Z,3.73
2018-09-21T20:36:46.938Z,2.80
2018-09-21T20:39:15.346Z,2.60
2018-09-21T20:41:43.866Z,2.83
2018-09-21T20:44:12.274Z,3.10
2018-09-21T20:46:40.646Z,3.50
2018-09-21T20:49:09.151Z,2.30
2018-09-21T20:51:37.551Z,2.77
2018-09-21T20:54:06.203Z,2.40
2018-09-21T20:56:34.573Z,2.23
2018-09-21T20:59:02.964Z,2.47
2018-09-21T21:01:31.374Z,2.57
2018-09-21T21:03:59.768Z,2.10
2018-09-21T21:06:28.146Z,2.87
2018-09-21T21:08:56.548Z,2.50
2018-09-21T21:11:24.918Z,1.97
2018-09-21T21:13:53.320Z,2.63
2018-09-21T21:16:21.692Z,2.00
2018-09-21T21:18:50.091Z,3.00
2018-09-21T21:21:18.466Z,3.07
2018-09-21T21:23:46.863Z,1.93
2018-09-21T21:26:15.308Z,2.37
2018-09-21T21:28:43.703Z,2.27
2018-09-21T21:31:12.091Z,2.17
2018-09-21T21:33:40.510Z,2.97
2018-09-21T21:36:09.582Z,2.93
2018-09-21T21:38:38.753Z,2.50
2018-09-21T21:41:07.174Z,2.33
2018-09-21T21:43:35.817Z,2.27
2018-09-21T21:46:04.498Z,1.93
2018-09-21T21:48:32.899Z,2.17
2018-09-21T21:51:01.322Z,1.90
2018-09-21T21:53:29.714Z,1.80
2018-09-21T21:55:58.404Z,2.53
2018-09-21T21:58:27.011Z,1.80
2018-09-21T22:01:00.946Z,1.63
2018-09-21T22:03:29.342Z,1.60
2018-09-21T22:05:57.764Z,1.97
2018-09-21T22:08:26.162Z,2.03
2018-09-21T22:10:54.597Z,1.67
2018-09-21T22:13:28.329Z,1.53
2018-09-21T22:15:56.762Z,1.60
2018-09-21T22:18:25.412Z,1.97
2018-09-21T22:20:53.839Z,1.97
2018-09-21T22:23:22.246Z,2.00
2018-09-21T22:25:50.695Z,1.90
2018-09-21T22:28:19.089Z,2.03
2018-09-21T22:30:47.530Z,1.40
2018-09-21T22:33:15.926Z,1.83
2018-09-21T22:35:44.383Z,1.80
2018-09-21T22:38:12.787Z,1.97
2018-09-21T22:40:41.209Z,2.00
2018-09-21T22:43:09.597Z,1.40
2018-09-21T22:45:38.009Z,1.57
2018-09-21T22:48:06.430Z,1.60
2018-09-21T22:50:34.902Z,1.87
2018-09-21T22:53:03.299Z,1.77
2018-09-21T22:55:31.718Z,2.03
2018-09-21T22:58:00.115Z,1.37
2018-09-21T23:00:28.538Z,1.60
2018-09-21T23:02:56.941Z,1.87
2018-09-21T23:05:25.367Z,1.50
2018-09-21T23:07:53.767Z,1.80
2018-09-21T23:10:22.185Z,1.60
2018-09-21T23:12:50.588Z,1.43
2018-09-21T23:15:19.006Z,1.40
2018-09-21T23:17:47.761Z,1.60
2018-09-21T23:20:16.187Z,1.10
2018-09-21T23:22:44.831Z,0.90
2018-09-21T23:25:13.438Z,0.93
2018-09-21T23:27:41.837Z,0.90
2018-09-21T23:30:10.277Z,1.10
2018-09-21T23:32:38.669Z,0.73
2018-09-21T23:35:07.106Z,0.90
2018-09-21T23:37:35.503Z,0.90
2018-09-21T23:40:03.910Z,0.80
2018-09-21T23:42:32.340Z,0.70
2018-09-21T23:45:00.734Z,0.50
2018-09-21T23:47:29.151Z,0.70
2018-09-21T23:49:57.547Z,0.70
2018-09-21T23:52:25.980Z,0.70
2018-09-21T23:54:54.378Z,1.00
2018-09-21T23:57:22.794Z,0.80
2018-09-21T23:59:51.346Z,0.60
